sensor_id;sensor_type;location;lat;lon;timestamp;P1;durP1;ratioP1;P2;durP2;ratioP2
13590;SDS011;6866;50.778;7.206;2022-08-19T00:02:03;24.23;;;18.25;;
13590;SDS011;6866;50.778;7.206;2022-08-19T00:04:31;20.83;;;17.63;;
13590;SDS011;6866;50.778;7.206;2022-08-19T00:07:00;21.17;;;17.58;;
13590;SDS011;6866;50.778;7.206;2022-08-19T00:09:28;21.80;;;17.75;;
13590;SDS011;6866;50.778;7.206;2022-08-19T00:11:54;19.48;;;17.40;;
13590;SDS011;6866;50.778;7.206;2022-08-19T00:14:21;22.02;;;17.58;;
13590;SDS011;6866;50.778;7.206;2022-08-19T00:16:49;19.67;;;17.58;;
13590;SDS011;6866;50.778;7.206;2022-08-19T00:19:19;19.65;;;17.42;;
13590;SDS011;6866;50.778;7.206;2022-08-19T00:21:45;20.08;;;17.17;;
13590;SDS011;6866;50.778;7.206;2022-08-19T00:24:12;21.67;;;17.60;;
13590;SDS011;6866;50.778;7.206;2022-08-19T00:26:39;20.42;;;18.25;;
13590;SDS011;6866;50.778;7.206;2022-08-19T00:29:07;23.67;;;19.30;;
13590;SDS011;6866;50.778;7.206;2022-08-19T00:31:33;20.65;;;18.27;;
13590;SDS011;6866;50.778;7.206;2022-08-19T00:34:00;21.33;;;18.27;;
13590;SDS011;6866;50.778;7.206;2022-08-19T00:36:25;22.27;;;18.52;;
13590;SDS011;6866;50.778;7.206;2022-08-19T00:38:51;24.73;;;19.25;;
13590;SDS011;6866;50.778;7.206;2022-08-19T00:41:18;21.58;;;19.25;;
13590;SDS011;6866;50.778;7.206;2022-08-19T00:46:28;26.38;;;19.10;;
13590;SDS011;6866;50.778;7.206;2022-08-19T00:48:53;23.48;;;19.38;;
13590;SDS011;6866;50.778;7.206;2022-08-19T00:51:20;21.27;;;18.75;;
13590;SDS011;6866;50.778;7.206;2022-08-19T00:53:47;23.38;;;19.73;;
13590;SDS011;6866;50.778;7.206;2022-08-19T00:56:12;21.20;;;18.73;;
13590;SDS011;6866;50.778;7.206;2022-08-19T00:58:38;21.10;;;18.85;;
13590;SDS011;6866;50.778;7.206;2022-08-19T01:03:40;23.70;;;18.40;;
13590;SDS011;6866;50.778;7.206;2022-08-19T01:06:06;22.77;;;18.02;;
13590;SDS011;6866;50.778;7.206;2022-08-19T01:08:31;19.10;;;16.88;;
13590;SDS011;6866;50.778;7.206;2022-08-19T01:10:58;22.42;;;18.10;;
13590;SDS011;6866;50.778;7.206;2022-08-19T01:13:26;20.15;;;17.25;;
13590;SDS011;6866;50.778;7.206;2022-08-19T01:15:56;23.02;;;19.65;;
13590;SDS011;6866;50.778;7.206;2022-08-19T01:18:24;23.83;;;18.63;;
13590;SDS011;6866;50.778;7.206;2022-08-19T01:20:53;22.92;;;18.88;;
13590;SDS011;6866;50.778;7.206;2022-08-19T01:23:21;22.83;;;19.35;;
13590;SDS011;6866;50.778;7.206;2022-08-19T01:26:06;22.23;;;18.25;;
13590;SDS011;6866;50.778;7.206;2022-08-19T01:28:32;20.67;;;17.15;;
13590;SDS011;6866;50.778;7.206;2022-08-19T01:30:58;20.80;;;17.35;;
13590;SDS011;6866;50.778;7.206;2022-08-19T01:33:23;20.10;;;17.58;;
13590;SDS011;6866;50.778;7.206;2022-08-19T01:35:49;24.15;;;19.95;;
13590;SDS011;6866;50.778;7.206;2022-08-19T01:38:24;22.08;;;18.25;;
13590;SDS011;6866;50.778;7.206;2022-08-19T01:40:51;23.40;;;19.58;;
13590;SDS011;6866;50.778;7.206;2022-08-19T01:43:17;23.38;;;19.10;;
13590;SDS011;6866;50.778;7.206;2022-08-19T01:45:44;22.13;;;19.15;;
13590;SDS011;6866;50.778;7.206;2022-08-19T01:48:09;26.88;;;20.05;;
13590;SDS011;6866;50.778;7.206;2022-08-19T01:50:36;23.35;;;19.60;;
13590;SDS011;6866;50.778;7.206;2022-08-19T01:53:03;23.55;;;19.63;;
13590;SDS011;6866;50.778;7.206;2022-08-19T01:55:30;23.02;;;19.45;;
13590;SDS011;6866;50.778;7.206;2022-08-19T01:57:57;21.55;;;19.25;;
13590;SDS011;6866;50.778;7.206;2022-08-19T02:00:26;22.58;;;19.23;;
13590;SDS011;6866;50.778;7.206;2022-08-19T02:02:54;20.27;;;17.95;;
13590;SDS011;6866;50.778;7.206;2022-08-19T02:05:20;23.60;;;18.83;;
13590;SDS011;6866;50.778;7.206;2022-08-19T02:07:46;22.50;;;18.48;;
13590;SDS011;6866;50.778;7.206;2022-08-19T02:10:15;22.65;;;18.33;;
13590;SDS011;6866;50.778;7.206;2022-08-19T02:12:43;22.10;;;18.33;;
13590;SDS011;6866;50.778;7.206;2022-08-19T02:15:09;21.73;;;17.98;;
13590;SDS011;6866;50.778;7.206;2022-08-19T02:17:35;30.00;;;17.90;;
13590;SDS011;6866;50.778;7.206;2022-08-19T02:20:00;19.75;;;17.25;;
13590;SDS011;6866;50.778;7.206;2022-08-19T02:22:26;23.63;;;18.23;;
13590;SDS011;6866;50.778;7.206;2022-08-19T02:24:52;20.77;;;17.92;;
13590;SDS011;6866;50.778;7.206;2022-08-19T02:27:19;21.90;;;18.52;;
13590;SDS011;6866;50.778;7.206;2022-08-19T02:29:46;21.92;;;18.92;;
13590;SDS011;6866;50.778;7.206;2022-08-19T02:32:13;20.45;;;18.25;;
13590;SDS011;6866;50.778;7.206;2022-08-19T02:34:39;24.08;;;18.42;;
13590;SDS011;6866;50.778;7.206;2022-08-19T02:37:05;21.35;;;18.77;;
13590;SDS011;6866;50.778;7.206;2022-08-19T02:39:51;19.65;;;17.55;;
13590;SDS011;6866;50.778;7.206;2022-08-19T02:42:16;25.30;;;19.35;;
13590;SDS011;6866;50.778;7.206;2022-08-19T02:44:42;25.17;;;19.70;;
13590;SDS011;6866;50.778;7.206;2022-08-19T02:47:07;20.77;;;17.85;;
13590;SDS011;6866;50.778;7.206;2022-08-19T02:49:34;20.98;;;18.23;;
13590;SDS011;6866;50.778;7.206;2022-08-19T02:51:59;22.48;;;18.15;;
13590;SDS011;6866;50.778;7.206;2022-08-19T02:54:25;25.73;;;19.17;;
13590;SDS011;6866;50.778;7.206;2022-08-19T02:56:50;23.20;;;19.30;;
13590;SDS011;6866;50.778;7.206;2022-08-19T02:59:16;23.33;;;18.40;;
13590;SDS011;6866;50.778;7.206;2022-08-19T03:01:42;20.02;;;17.55;;
13590;SDS011;6866;50.778;7.206;2022-08-19T03:04:08;23.70;;;17.77;;
13590;SDS011;6866;50.778;7.206;2022-08-19T03:06:36;20.10;;;17.80;;
13590;SDS011;6866;50.778;7.206;2022-08-19T03:09:06;21.20;;;17.58;;
13590;SDS011;6866;50.778;7.206;2022-08-19T03:11:32;21.13;;;18.05;;
13590;SDS011;6866;50.778;7.206;2022-08-19T03:14:00;19.85;;;17.17;;
13590;SDS011;6866;50.778;7.206;2022-08-19T03:16:27;23.42;;;18.98;;
13590;SDS011;6866;50.778;7.206;2022-08-19T03:18:55;23.50;;;18.83;;
13590;SDS011;6866;50.778;7.206;2022-08-19T03:21:25;22.60;;;17.85;;
13590;SDS011;6866;50.778;7.206;2022-08-19T03:23:55;23.42;;;18.92;;
13590;SDS011;6866;50.778;7.206;2022-08-19T03:26:22;22.95;;;19.10;;
13590;SDS011;6866;50.778;7.206;2022-08-19T03:28:48;23.05;;;17.98;;
13590;SDS011;6866;50.778;7.206;2022-08-19T03:31:16;21.05;;;18.38;;
13590;SDS011;6866;50.778;7.206;2022-08-19T03:33:44;21.70;;;17.00;;
13590;SDS011;6866;50.778;7.206;2022-08-19T03:36:14;22.42;;;17.38;;
13590;SDS011;6866;50.778;7.206;2022-08-19T03:38:43;21.63;;;17.80;;
13590;SDS011;6866;50.778;7.206;2022-08-19T03:41:14;22.08;;;18.20;;
13590;SDS011;6866;50.778;7.206;2022-08-19T03:43:43;20.52;;;17.40;;
13590;SDS011;6866;50.778;7.206;2022-08-19T03:46:12;20.00;;;16.85;;
13590;SDS011;6866;50.778;7.206;2022-08-19T03:48:45;21.98;;;17.40;;
13590;SDS011;6866;50.778;7.206;2022-08-19T03:51:22;23.30;;;17.55;;
13590;SDS011;6866;50.778;7.206;2022-08-19T03:53:47;23.55;;;17.60;;
13590;SDS011;6866;50.778;7.206;2022-08-19T03:56:13;22.63;;;17.77;;
13590;SDS011;6866;50.778;7.206;2022-08-19T03:58:40;21.38;;;18.30;;
13590;SDS011;6866;50.778;7.206;2022-08-19T04:01:14;23.27;;;17.00;;
13590;SDS011;6866;50.778;7.206;2022-08-19T04:03:41;24.00;;;18.30;;
13590;SDS011;6866;50.778;7.206;2022-08-19T04:06:14;22.95;;;19.10;;
13590;SDS011;6866;50.778;7.206;2022-08-19T04:08:40;20.55;;;18.02;;
13590;SDS011;6866;50.778;7.206;2022-08-19T04:11:11;21.80;;;17.38;;
13590;SDS011;6866;50.778;7.206;2022-08-19T04:13:38;21.83;;;16.95;;
13590;SDS011;6866;50.778;7.206;2022-08-19T04:16:05;22.35;;;16.33;;
13590;SDS011;6866;50.778;7.206;2022-08-19T04:18:32;21.70;;;16.80;;
13590;SDS011;6866;50.778;7.206;2022-08-19T04:20:59;21.05;;;15.63;;
13590;SDS011;6866;50.778;7.206;2022-08-19T04:23:25;21.20;;;16.38;;
13590;SDS011;6866;50.778;7.206;2022-08-19T04:25:52;19.98;;;16.67;;
13590;SDS011;6866;50.778;7.206;2022-08-19T04:28:17;21.90;;;16.98;;
13590;SDS011;6866;50.778;7.206;2022-08-19T04:30:44;24.85;;;17.02;;
13590;SDS011;6866;50.778;7.206;2022-08-19T04:33:12;24.23;;;16.55;;
13590;SDS011;6866;50.778;7.206;2022-08-19T04:35:40;17.83;;;15.93;;
13590;SDS011;6866;50.778;7.206;2022-08-19T04:38:08;20.52;;;16.98;;
13590;SDS011;6866;50.778;7.206;2022-08-19T04:40:34;23.38;;;16.92;;
13590;SDS011;6866;50.778;7.206;2022-08-19T04:43:27;22.15;;;17.27;;
13590;SDS011;6866;50.778;7.206;2022-08-19T04:45:53;22.55;;;17.27;;
13590;SDS011;6866;50.778;7.206;2022-08-19T04:48:19;25.02;;;18.55;;
13590;SDS011;6866;50.778;7.206;2022-08-19T04:50:50;22.65;;;18.40;;
13590;SDS011;6866;50.778;7.206;2022-08-19T04:53:24;20.75;;;17.70;;
13590;SDS011;6866;50.778;7.206;2022-08-19T04:55:51;23.02;;;17.35;;
13590;SDS011;6866;50.778;7.206;2022-08-19T04:58:17;19.63;;;17.50;;
13590;SDS011;6866;50.778;7.206;2022-08-19T05:00:43;21.50;;;16.08;;
13590;SDS011;6866;50.778;7.206;2022-08-19T05:03:09;19.17;;;16.38;;
13590;SDS011;6866;50.778;7.206;2022-08-19T05:05:38;23.10;;;17.52;;
13590;SDS011;6866;50.778;7.206;2022-08-19T05:08:06;21.92;;;15.95;;
13590;SDS011;6866;50.778;7.206;2022-08-19T05:10:34;18.92;;;15.25;;
13590;SDS011;6866;50.778;7.206;2022-08-19T05:13:01;20.95;;;16.30;;
13590;SDS011;6866;50.778;7.206;2022-08-19T05:15:27;19.52;;;15.70;;
13590;SDS011;6866;50.778;7.206;2022-08-19T05:17:53;21.13;;;15.48;;
13590;SDS011;6866;50.778;7.206;2022-08-19T05:20:38;19.83;;;16.42;;
13590;SDS011;6866;50.778;7.206;2022-08-19T05:23:22;23.42;;;16.17;;
13590;SDS011;6866;50.778;7.206;2022-08-19T05:25:48;20.15;;;15.82;;
13590;SDS011;6866;50.778;7.206;2022-08-19T05:28:15;19.38;;;14.48;;
13590;SDS011;6866;50.778;7.206;2022-08-19T05:30:40;19.35;;;15.50;;
13590;SDS011;6866;50.778;7.206;2022-08-19T05:33:08;21.90;;;15.93;;
13590;SDS011;6866;50.778;7.206;2022-08-19T05:35:35;21.27;;;15.05;;
13590;SDS011;6866;50.778;7.206;2022-08-19T05:38:02;20.38;;;15.60;;
13590;SDS011;6866;50.778;7.206;2022-08-19T05:40:28;24.52;;;15.55;;
13590;SDS011;6866;50.778;7.206;2022-08-19T05:42:54;22.42;;;15.27;;
13590;SDS011;6866;50.778;7.206;2022-08-19T05:45:19;17.73;;;14.18;;
13590;SDS011;6866;50.778;7.206;2022-08-19T05:47:46;18.70;;;15.18;;
13590;SDS011;6866;50.778;7.206;2022-08-19T05:50:12;20.27;;;14.77;;
13590;SDS011;6866;50.778;7.206;2022-08-19T05:52:37;23.85;;;15.07;;
13590;SDS011;6866;50.778;7.206;2022-08-19T05:55:03;21.48;;;14.63;;
13590;SDS011;6866;50.778;7.206;2022-08-19T05:57:30;18.67;;;15.10;;
13590;SDS011;6866;50.778;7.206;2022-08-19T05:59:56;21.42;;;15.32;;
13590;SDS011;6866;50.778;7.206;2022-08-19T06:02:22;20.10;;;15.38;;
13590;SDS011;6866;50.778;7.206;2022-08-19T06:04:48;18.30;;;15.48;;
13590;SDS011;6866;50.778;7.206;2022-08-19T06:07:14;21.05;;;15.52;;
13590;SDS011;6866;50.778;7.206;2022-08-19T06:09:40;18.80;;;15.73;;
13590;SDS011;6866;50.778;7.206;2022-08-19T06:12:06;22.58;;;16.60;;
13590;SDS011;6866;50.778;7.206;2022-08-19T06:14:32;21.70;;;16.15;;
13590;SDS011;6866;50.778;7.206;2022-08-19T06:17:00;22.10;;;16.83;;
13590;SDS011;6866;50.778;7.206;2022-08-19T06:19:27;22.60;;;16.33;;
13590;SDS011;6866;50.778;7.206;2022-08-19T06:21:55;18.83;;;16.23;;
13590;SDS011;6866;50.778;7.206;2022-08-19T06:24:23;24.55;;;17.10;;
13590;SDS011;6866;50.778;7.206;2022-08-19T06:26:51;24.15;;;17.38;;
13590;SDS011;6866;50.778;7.206;2022-08-19T06:29:18;22.50;;;16.75;;
13590;SDS011;6866;50.778;7.206;2022-08-19T06:31:50;22.13;;;16.63;;
13590;SDS011;6866;50.778;7.206;2022-08-19T06:34:18;26.13;;;16.98;;
13590;SDS011;6866;50.778;7.206;2022-08-19T06:36:45;22.02;;;17.42;;
13590;SDS011;6866;50.778;7.206;2022-08-19T06:39:16;25.48;;;16.80;;
13590;SDS011;6866;50.778;7.206;2022-08-19T06:41:45;25.20;;;17.10;;
13590;SDS011;6866;50.778;7.206;2022-08-19T06:44:13;23.90;;;17.85;;
13590;SDS011;6866;50.778;7.206;2022-08-19T06:46:40;36.20;;;18.08;;
13590;SDS011;6866;50.778;7.206;2022-08-19T06:49:06;19.85;;;17.27;;
13590;SDS011;6866;50.778;7.206;2022-08-19T06:51:36;24.90;;;16.67;;
13590;SDS011;6866;50.778;7.206;2022-08-19T06:59:18;26.63;;;20.63;;
13590;SDS011;6866;50.778;7.206;2022-08-19T07:01:47;25.42;;;22.77;;
13590;SDS011;6866;50.778;7.206;2022-08-19T07:04:15;32.47;;;27.38;;
13590;SDS011;6866;50.778;7.206;2022-08-19T07:06:43;32.72;;;26.83;;
13590;SDS011;6866;50.778;7.206;2022-08-19T07:09:09;32.13;;;27.38;;
13590;SDS011;6866;50.778;7.206;2022-08-19T07:11:36;30.13;;;27.08;;
13590;SDS011;6866;50.778;7.206;2022-08-19T07:14:02;34.25;;;29.13;;
13590;SDS011;6866;50.778;7.206;2022-08-19T07:16:28;35.67;;;27.42;;
13590;SDS011;6866;50.778;7.206;2022-08-19T07:18:54;34.08;;;29.33;;
13590;SDS011;6866;50.778;7.206;2022-08-19T07:21:23;29.70;;;26.50;;
13590;SDS011;6866;50.778;7.206;2022-08-19T07:23:53;33.15;;;27.60;;
13590;SDS011;6866;50.778;7.206;2022-08-19T07:26:24;34.97;;;29.58;;
13590;SDS011;6866;50.778;7.206;2022-08-19T07:28:52;32.58;;;29.05;;
13590;SDS011;6866;50.778;7.206;2022-08-19T07:31:20;34.20;;;29.55;;
13590;SDS011;6866;50.778;7.206;2022-08-19T07:33:47;33.45;;;29.42;;
13590;SDS011;6866;50.778;7.206;2022-08-19T07:36:17;35.00;;;30.13;;
13590;SDS011;6866;50.778;7.206;2022-08-19T07:48:31;39.40;;;30.27;;
13590;SDS011;6866;50.778;7.206;2022-08-19T07:50:58;33.53;;;28.65;;
13590;SDS011;6866;50.778;7.206;2022-08-19T07:53:29;34.35;;;28.15;;
13590;SDS011;6866;50.778;7.206;2022-08-19T07:55:57;33.53;;;28.05;;
13590;SDS011;6866;50.778;7.206;2022-08-19T07:58:26;33.10;;;25.67;;
13590;SDS011;6866;50.778;7.206;2022-08-19T08:00:52;32.78;;;26.40;;
13590;SDS011;6866;50.778;7.206;2022-08-19T08:03:19;34.63;;;27.55;;
13590;SDS011;6866;50.778;7.206;2022-08-19T08:06:06;40.83;;;27.85;;
13590;SDS011;6866;50.778;7.206;2022-08-19T08:08:50;35.47;;;27.83;;
13590;SDS011;6866;50.778;7.206;2022-08-19T08:11:34;31.92;;;28.38;;
13590;SDS011;6866;50.778;7.206;2022-08-19T08:14:00;28.13;;;23.73;;
13590;SDS011;6866;50.778;7.206;2022-08-19T08:16:26;27.73;;;24.92;;
13590;SDS011;6866;50.778;7.206;2022-08-19T08:18:56;26.88;;;23.60;;
13590;SDS011;6866;50.778;7.206;2022-08-19T08:21:21;30.40;;;23.90;;
13590;SDS011;6866;50.778;7.206;2022-08-19T08:23:47;29.90;;;23.35;;
13590;SDS011;6866;50.778;7.206;2022-08-19T08:26:13;27.67;;;22.67;;
13590;SDS011;6866;50.778;7.206;2022-08-19T08:28:39;27.65;;;23.00;;
13590;SDS011;6866;50.778;7.206;2022-08-19T08:31:05;28.40;;;21.98;;
13590;SDS011;6866;50.778;7.206;2022-08-19T08:33:30;25.30;;;19.92;;
13590;SDS011;6866;50.778;7.206;2022-08-19T08:35:56;26.38;;;21.40;;
13590;SDS011;6866;50.778;7.206;2022-08-19T08:38:21;31.83;;;21.50;;
13590;SDS011;6866;50.778;7.206;2022-08-19T08:40:48;23.38;;;20.17;;
13590;SDS011;6866;50.778;7.206;2022-08-19T08:45:51;27.40;;;19.98;;
13590;SDS011;6866;50.778;7.206;2022-08-19T08:48:26;18.00;;;13.27;;
13590;SDS011;6866;50.778;7.206;2022-08-19T08:50:59;13.27;;;11.40;;
13590;SDS011;6866;50.778;7.206;2022-08-19T08:53:30;17.30;;;12.32;;
13590;SDS011;6866;50.778;7.206;2022-08-19T08:55:56;16.48;;;12.40;;
13590;SDS011;6866;50.778;7.206;2022-08-19T08:58:31;19.13;;;14.23;;
13590;SDS011;6866;50.778;7.206;2022-08-19T09:01:21;18.38;;;12.10;;
13590;SDS011;6866;50.778;7.206;2022-08-19T09:03:47;16.63;;;12.02;;
13590;SDS011;6866;50.778;7.206;2022-08-19T09:06:21;15.02;;;11.27;;
13590;SDS011;6866;50.778;7.206;2022-08-19T09:09:09;18.20;;;13.35;;
13590;SDS011;6866;50.778;7.206;2022-08-19T09:17:23;15.40;;;10.98;;
13590;SDS011;6866;50.778;7.206;2022-08-19T09:20:14;12.65;;;9.23;;
13590;SDS011;6866;50.778;7.206;2022-08-19T09:22:43;14.80;;;10.63;;
13590;SDS011;6866;50.778;7.206;2022-08-19T09:25:10;16.17;;;9.85;;
13590;SDS011;6866;50.778;7.206;2022-08-19T09:27:39;15.32;;;11.30;;
13590;SDS011;6866;50.778;7.206;2022-08-19T09:30:06;17.25;;;12.45;;
13590;SDS011;6866;50.778;7.206;2022-08-19T09:32:32;18.92;;;13.25;;
13590;SDS011;6866;50.778;7.206;2022-08-19T09:34:59;13.98;;;10.52;;
13590;SDS011;6866;50.778;7.206;2022-08-19T09:37:25;13.75;;;9.45;;
13590;SDS011;6866;50.778;7.206;2022-08-19T09:39:51;18.85;;;11.73;;
13590;SDS011;6866;50.778;7.206;2022-08-19T09:47:09;16.17;;;10.48;;
13590;SDS011;6866;50.778;7.206;2022-08-19T09:49:36;18.08;;;12.82;;
13590;SDS011;6866;50.778;7.206;2022-08-19T09:52:04;14.98;;;13.23;;
13590;SDS011;6866;50.778;7.206;2022-08-19T09:54:31;18.33;;;12.95;;
13590;SDS011;6866;50.778;7.206;2022-08-19T10:06:42;17.67;;;13.18;;
13590;SDS011;6866;50.778;7.206;2022-08-19T10:09:08;18.33;;;12.35;;
13590;SDS011;6866;50.778;7.206;2022-08-19T10:11:36;15.95;;;12.38;;
13590;SDS011;6866;50.778;7.206;2022-08-19T10:14:04;16.20;;;12.52;;
13590;SDS011;6866;50.778;7.206;2022-08-19T10:16:33;19.50;;;13.52;;
13590;SDS011;6866;50.778;7.206;2022-08-19T10:19:01;18.60;;;14.70;;
13590;SDS011;6866;50.778;7.206;2022-08-19T10:21:28;20.98;;;17.13;;
13590;SDS011;6866;50.778;7.206;2022-08-19T10:23:58;21.05;;;16.60;;
13590;SDS011;6866;50.778;7.206;2022-08-19T10:28:54;19.65;;;14.57;;
13590;SDS011;6866;50.778;7.206;2022-08-19T10:31:22;26.42;;;18.10;;
13590;SDS011;6866;50.778;7.206;2022-08-19T10:33:55;23.83;;;17.40;;
13590;SDS011;6866;50.778;7.206;2022-08-19T10:36:29;23.20;;;18.92;;
13590;SDS011;6866;50.778;7.206;2022-08-19T10:38:58;45.77;;;19.53;;
13590;SDS011;6866;50.778;7.206;2022-08-19T10:41:27;20.92;;;18.70;;
13590;SDS011;6866;50.778;7.206;2022-08-19T10:43:55;22.83;;;16.52;;
13590;SDS011;6866;50.778;7.206;2022-08-19T10:46:28;22.35;;;18.40;;
13590;SDS011;6866;50.778;7.206;2022-08-19T10:48:58;22.63;;;16.97;;
13590;SDS011;6866;50.778;7.206;2022-08-19T10:51:25;24.23;;;17.45;;
13590;SDS011;6866;50.778;7.206;2022-08-19T10:54:09;22.95;;;17.10;;
13590;SDS011;6866;50.778;7.206;2022-08-19T10:56:35;25.10;;;19.63;;
13590;SDS011;6866;50.778;7.206;2022-08-19T11:01:43;20.27;;;17.02;;
13590;SDS011;6866;50.778;7.206;2022-08-19T11:04:10;22.08;;;16.58;;
13590;SDS011;6866;50.778;7.206;2022-08-19T11:06:38;21.25;;;16.27;;
13590;SDS011;6866;50.778;7.206;2022-08-19T11:21:33;18.92;;;13.32;;
13590;SDS011;6866;50.778;7.206;2022-08-19T11:24:02;16.58;;;12.23;;
13590;SDS011;6866;50.778;7.206;2022-08-19T11:26:31;15.95;;;13.30;;
13590;SDS011;6866;50.778;7.206;2022-08-19T11:28:58;14.25;;;12.45;;
13590;SDS011;6866;50.778;7.206;2022-08-19T11:31:25;14.00;;;11.25;;
13590;SDS011;6866;50.778;7.206;2022-08-19T11:46:06;12.77;;;9.82;;
13590;SDS011;6866;50.778;7.206;2022-08-19T11:48:34;14.00;;;11.05;;
13590;SDS011;6866;50.778;7.206;2022-08-19T11:51:02;12.15;;;10.18;;
13590;SDS011;6866;50.778;7.206;2022-08-19T12:05:41;13.20;;;9.80;;
13590;SDS011;6866;50.778;7.206;2022-08-19T12:10:32;11.80;;;9.88;;
13590;SDS011;6866;50.778;7.206;2022-08-19T12:15:25;16.10;;;10.43;;
13590;SDS011;6866;50.778;7.206;2022-08-19T12:30:05;16.52;;;9.40;;
13590;SDS011;6866;50.778;7.206;2022-08-19T12:34:58;14.60;;;9.18;;
13590;SDS011;6866;50.778;7.206;2022-08-19T12:37:24;12.85;;;8.60;;
13590;SDS011;6866;50.778;7.206;2022-08-19T12:52:02;9.20;;;8.07;;
13590;SDS011;6866;50.778;7.206;2022-08-19T12:54:32;9.98;;;7.50;;
13590;SDS011;6866;50.778;7.206;2022-08-19T12:56:58;10.43;;;7.50;;
13590;SDS011;6866;50.778;7.206;2022-08-19T12:59:24;8.90;;;8.00;;
13590;SDS011;6866;50.778;7.206;2022-08-19T13:11:33;11.93;;;8.40;;
13590;SDS011;6866;50.778;7.206;2022-08-19T13:13:59;20.15;;;9.52;;
13590;SDS011;6866;50.778;7.206;2022-08-19T13:16:26;10.82;;;8.77;;
13590;SDS011;6866;50.778;7.206;2022-08-19T13:18:53;12.25;;;8.43;;
13590;SDS011;6866;50.778;7.206;2022-08-19T13:26:13;12.98;;;8.43;;
13590;SDS011;6866;50.778;7.206;2022-08-19T13:34:08;10.55;;;8.32;;
13590;SDS011;6866;50.778;7.206;2022-08-19T13:41:26;10.13;;;6.38;;
13590;SDS011;6866;50.778;7.206;2022-08-19T13:43:52;10.10;;;5.72;;
13590;SDS011;6866;50.778;7.206;2022-08-19T13:46:19;6.38;;;5.70;;
13590;SDS011;6866;50.778;7.206;2022-08-19T13:51:10;8.70;;;6.40;;
13590;SDS011;6866;50.778;7.206;2022-08-19T13:53:37;8.50;;;6.17;;
13590;SDS011;6866;50.778;7.206;2022-08-19T13:58:32;8.57;;;6.28;;
13590;SDS011;6866;50.778;7.206;2022-08-19T14:00:58;10.45;;;7.70;;
13590;SDS011;6866;50.778;7.206;2022-08-19T14:05:50;12.18;;;8.13;;
13590;SDS011;6866;50.778;7.206;2022-08-19T14:08:15;13.70;;;9.37;;
13590;SDS011;6866;50.778;7.206;2022-08-19T14:20:27;11.77;;;7.95;;
13590;SDS011;6866;50.778;7.206;2022-08-19T14:22:53;14.10;;;7.82;;
13590;SDS011;6866;50.778;7.206;2022-08-19T14:25:24;8.10;;;6.88;;
13590;SDS011;6866;50.778;7.206;2022-08-19T14:27:52;12.15;;;6.90;;
13590;SDS011;6866;50.778;7.206;2022-08-19T14:37:37;11.85;;;6.00;;
13590;SDS011;6866;50.778;7.206;2022-08-19T14:40:04;9.43;;;6.35;;
13590;SDS011;6866;50.778;7.206;2022-08-19T14:47:24;10.57;;;6.13;;
13590;SDS011;6866;50.778;7.206;2022-08-19T14:49:50;10.55;;;6.88;;
13590;SDS011;6866;50.778;7.206;2022-08-19T14:52:15;13.00;;;7.32;;
13590;SDS011;6866;50.778;7.206;2022-08-19T14:54:41;10.43;;;7.07;;
13590;SDS011;6866;50.778;7.206;2022-08-19T14:57:07;10.20;;;7.50;;
13590;SDS011;6866;50.778;7.206;2022-08-19T14:59:36;11.23;;;7.45;;
13590;SDS011;6866;50.778;7.206;2022-08-19T15:02:02;12.50;;;7.88;;
13590;SDS011;6866;50.778;7.206;2022-08-19T15:04:28;10.20;;;6.75;;
13590;SDS011;6866;50.778;7.206;2022-08-19T15:28:48;11.25;;;7.68;;
13590;SDS011;6866;50.778;7.206;2022-08-19T15:31:16;8.90;;;6.65;;
13590;SDS011;6866;50.778;7.206;2022-08-19T15:33:43;13.57;;;6.57;;
13590;SDS011;6866;50.778;7.206;2022-08-19T15:36:09;14.40;;;6.78;;
13590;SDS011;6866;50.778;7.206;2022-08-19T15:38:39;10.88;;;6.32;;
13590;SDS011;6866;50.778;7.206;2022-08-19T15:41:13;10.40;;;6.25;;
13590;SDS011;6866;50.778;7.206;2022-08-19T15:43:55;13.20;;;5.68;;
13590;SDS011;6866;50.778;7.206;2022-08-19T15:46:24;12.98;;;6.38;;
13590;SDS011;6866;50.778;7.206;2022-08-19T15:48:51;12.63;;;5.85;;
13590;SDS011;6866;50.778;7.206;2022-08-19T15:51:17;10.18;;;6.15;;
13590;SDS011;6866;50.778;7.206;2022-08-19T15:53:44;8.10;;;5.35;;
13590;SDS011;6866;50.778;7.206;2022-08-19T15:56:10;8.18;;;5.10;;
13590;SDS011;6866;50.778;7.206;2022-08-19T15:58:36;9.32;;;4.60;;
13590;SDS011;6866;50.778;7.206;2022-08-19T16:01:20;8.38;;;4.63;;
13590;SDS011;6866;50.778;7.206;2022-08-19T16:03:56;6.90;;;4.07;;
13590;SDS011;6866;50.778;7.206;2022-08-19T16:06:48;7.63;;;4.30;;
13590;SDS011;6866;50.778;7.206;2022-08-19T16:09:17;10.13;;;4.03;;
13590;SDS011;6866;50.778;7.206;2022-08-19T16:11:44;8.98;;;4.40;;
13590;SDS011;6866;50.778;7.206;2022-08-19T16:14:11;7.38;;;3.90;;
13590;SDS011;6866;50.778;7.206;2022-08-19T16:16:38;9.50;;;4.60;;
13590;SDS011;6866;50.778;7.206;2022-08-19T16:19:06;6.75;;;3.40;;
13590;SDS011;6866;50.778;7.206;2022-08-19T16:21:33;7.63;;;3.50;;
13590;SDS011;6866;50.778;7.206;2022-08-19T16:24:01;6.40;;;3.33;;
13590;SDS011;6866;50.778;7.206;2022-08-19T16:26:28;7.88;;;3.50;;
13590;SDS011;6866;50.778;7.206;2022-08-19T16:28:55;6.10;;;3.60;;
13590;SDS011;6866;50.778;7.206;2022-08-19T16:31:22;9.57;;;3.30;;
13590;SDS011;6866;50.778;7.206;2022-08-19T16:33:48;8.10;;;3.58;;
13590;SDS011;6866;50.778;7.206;2022-08-19T16:36:14;6.78;;;3.13;;
13590;SDS011;6866;50.778;7.206;2022-08-19T16:38:40;6.93;;;3.20;;
13590;SDS011;6866;50.778;7.206;2022-08-19T16:41:06;6.10;;;3.03;;
13590;SDS011;6866;50.778;7.206;2022-08-19T16:43:32;7.43;;;3.17;;
13590;SDS011;6866;50.778;7.206;2022-08-19T16:45:58;7.10;;;3.13;;
13590;SDS011;6866;50.778;7.206;2022-08-19T16:48:25;6.38;;;3.00;;
13590;SDS011;6866;50.778;7.206;2022-08-19T16:50:53;7.30;;;3.07;;
13590;SDS011;6866;50.778;7.206;2022-08-19T16:53:21;7.15;;;3.22;;
13590;SDS011;6866;50.778;7.206;2022-08-19T16:55:52;7.53;;;3.03;;
13590;SDS011;6866;50.778;7.206;2022-08-19T16:58:21;5.28;;;2.80;;
13590;SDS011;6866;50.778;7.206;2022-08-19T17:00:49;8.10;;;3.30;;
13590;SDS011;6866;50.778;7.206;2022-08-19T17:03:16;6.33;;;3.03;;
13590;SDS011;6866;50.778;7.206;2022-08-19T17:05:44;8.25;;;3.30;;
13590;SDS011;6866;50.778;7.206;2022-08-19T17:08:12;7.40;;;2.93;;
13590;SDS011;6866;50.778;7.206;2022-08-19T17:10:40;5.80;;;2.97;;
13590;SDS011;6866;50.778;7.206;2022-08-19T17:13:07;5.95;;;2.60;;
13590;SDS011;6866;50.778;7.206;2022-08-19T17:15:33;5.03;;;2.58;;
13590;SDS011;6866;50.778;7.206;2022-08-19T17:17:59;5.32;;;2.67;;
13590;SDS011;6866;50.778;7.206;2022-08-19T17:20:25;6.22;;;2.80;;
13590;SDS011;6866;50.778;7.206;2022-08-19T17:22:51;5.63;;;2.72;;
13590;SDS011;6866;50.778;7.206;2022-08-19T17:25:17;6.77;;;2.60;;
13590;SDS011;6866;50.778;7.206;2022-08-19T17:27:43;6.27;;;2.47;;
13590;SDS011;6866;50.778;7.206;2022-08-19T17:30:08;4.40;;;2.40;;
13590;SDS011;6866;50.778;7.206;2022-08-19T17:32:34;6.22;;;2.38;;
13590;SDS011;6866;50.778;7.206;2022-08-19T17:35:02;5.53;;;2.25;;
13590;SDS011;6866;50.778;7.206;2022-08-19T17:37:28;4.70;;;2.08;;
13590;SDS011;6866;50.778;7.206;2022-08-19T17:39:54;4.80;;;2.22;;
13590;SDS011;6866;50.778;7.206;2022-08-19T17:42:19;4.80;;;2.00;;
13590;SDS011;6866;50.778;7.206;2022-08-19T17:44:45;7.72;;;2.20;;
13590;SDS011;6866;50.778;7.206;2022-08-19T17:48:37;4.22;;;1.90;;
13590;SDS011;6866;50.778;7.206;2022-08-19T17:51:12;5.93;;;2.10;;
13590;SDS011;6866;50.778;7.206;2022-08-19T17:53:39;4.93;;;1.90;;
13590;SDS011;6866;50.778;7.206;2022-08-19T17:56:05;6.75;;;2.00;;
13590;SDS011;6866;50.778;7.206;2022-08-19T17:58:30;3.93;;;1.90;;
13590;SDS011;6866;50.778;7.206;2022-08-19T18:00:56;5.75;;;2.00;;